createdAt,value
2023-04-28T00:00:33.350Z,1.63
2023-04-28T00:03:01.037Z,1.90
2023-04-28T00:05:38.922Z,1.90
2023-04-28T00:08:06.655Z,1.67
2023-04-28T00:10:34.173Z,1.95
2023-04-28T00:13:01.969Z,1.75
2023-04-28T00:15:29.726Z,1.60
2023-04-28T00:17:58.715Z,1.90
2023-04-28T00:20:26.552Z,2.22
2023-04-28T00:22:54.073Z,1.60
2023-04-28T00:25:21.990Z,1.80
2023-04-28T00:27:50.217Z,1.67
2023-04-28T00:30:17.892Z,1.77
2023-04-28T00:33:12.723Z,1.90
2023-04-28T00:35:41.855Z,2.40
2023-04-28T00:38:12.911Z,1.77
2023-04-28T00:40:41.706Z,1.90
2023-04-28T00:43:10.780Z,1.50
2023-04-28T00:48:29.955Z,1.63
2023-04-28T00:50:58.767Z,1.73
2023-04-28T00:53:26.422Z,1.98
2023-04-28T00:56:19.033Z,2.05
2023-04-28T00:58:46.944Z,1.70
2023-04-28T01:01:14.571Z,2.08
2023-04-28T01:09:29.004Z,1.58
2023-04-28T01:11:58.393Z,1.60
2023-04-28T01:14:25.981Z,1.42
2023-04-28T01:16:54.272Z,1.45
2023-04-28T01:19:22.691Z,1.73
2023-04-28T01:21:51.698Z,2.13
2023-04-28T01:24:20.665Z,1.60
2023-04-28T01:26:48.276Z,1.80
2023-04-28T01:29:15.799Z,1.40
2023-04-28T01:37:26.307Z,1.40
2023-04-28T01:39:55.217Z,1.95
2023-04-28T01:42:22.741Z,1.80
2023-04-28T01:44:50.364Z,1.80
2023-04-28T01:47:17.841Z,1.73
2023-04-28T01:49:47.828Z,1.90
2023-04-28T01:52:15.374Z,1.48
2023-04-28T01:54:42.837Z,1.35
2023-04-28T01:57:11.635Z,2.17
2023-04-28T01:59:39.240Z,1.65
2023-04-28T02:02:06.703Z,1.95
2023-04-28T02:04:34.355Z,1.70
2023-04-28T02:07:02.369Z,1.45
2023-04-28T02:09:29.936Z,1.65
2023-04-28T02:11:57.408Z,1.50
2023-04-28T02:14:27.109Z,1.67
2023-04-28T02:17:18.621Z,1.38
2023-04-28T02:19:46.434Z,1.33
2023-04-28T02:22:14.009Z,1.60
2023-04-28T02:24:41.510Z,1.75
2023-04-28T02:27:09.022Z,1.50
2023-04-28T02:29:39.825Z,1.60
2023-04-28T02:32:07.374Z,1.55
2023-04-28T02:37:27.121Z,1.67
2023-04-28T02:39:56.937Z,2.08
2023-04-28T02:42:24.475Z,1.88
2023-04-28T02:44:53.367Z,1.67
2023-04-28T02:47:21.222Z,1.92
2023-04-28T02:49:48.714Z,1.67
2023-04-28T02:52:16.460Z,1.73
2023-04-28T02:54:43.947Z,1.58
2023-04-28T02:57:11.449Z,1.70
2023-04-28T02:59:39.368Z,1.85
2023-04-28T03:02:09.187Z,1.38
2023-04-28T03:04:36.759Z,2.00
2023-04-28T03:07:04.453Z,1.58
2023-04-28T03:09:32.067Z,1.60
2023-04-28T03:11:59.731Z,1.73
2023-04-28T03:20:12.958Z,1.48
2023-04-28T03:22:40.496Z,1.60
2023-04-28T03:25:08.222Z,1.80
2023-04-28T03:27:38.665Z,1.50
2023-04-28T03:30:07.580Z,1.60
2023-04-28T03:32:36.565Z,1.92
2023-04-28T03:37:57.351Z,1.95
2023-04-28T03:40:24.993Z,2.42
2023-04-28T03:42:52.810Z,1.52
2023-04-28T03:45:20.430Z,2.03
2023-04-28T03:47:49.346Z,1.73
2023-04-28T03:50:16.955Z,1.83
2023-04-28T03:52:44.736Z,1.58
2023-04-28T03:55:12.233Z,1.40
2023-04-28T03:57:39.737Z,2.13
2023-04-28T04:00:07.901Z,1.83
2023-04-28T04:02:35.656Z,2.03
2023-04-28T04:05:04.789Z,1.70
2023-04-28T04:10:28.762Z,2.22
2023-04-28T04:12:58.563Z,1.45
2023-04-28T04:21:15.915Z,2.10
2023-04-28T04:23:45.539Z,1.50
2023-04-28T04:26:15.116Z,1.58
2023-04-28T04:28:42.678Z,1.48
2023-04-28T04:31:12.591Z,1.60
2023-04-28T04:33:40.324Z,1.52
2023-04-28T04:36:08.347Z,1.52
2023-04-28T04:38:38.513Z,2.90
2023-04-28T04:41:08.473Z,1.90
2023-04-28T04:43:36.186Z,1.70
2023-04-28T04:46:04.595Z,2.00
2023-04-28T04:48:32.228Z,1.20
2023-04-28T04:51:01.907Z,2.03
2023-04-28T04:53:53.934Z,1.75
2023-04-28T04:59:16.291Z,2.08
2023-04-28T05:01:46.330Z,1.58
2023-04-28T05:04:14.233Z,1.80
2023-04-28T05:06:42.044Z,1.60
2023-04-28T05:09:10.217Z,1.42
2023-04-28T05:17:30.259Z,1.60
2023-04-28T05:19:57.819Z,1.35
2023-04-28T05:22:27.864Z,2.10
2023-04-28T05:24:59.457Z,1.95
2023-04-28T05:27:30.960Z,2.25
2023-04-28T05:38:39.823Z,1.80
2023-04-28T05:41:07.331Z,1.70
2023-04-28T05:43:37.340Z,1.48
2023-04-28T05:52:13.826Z,1.13
2023-04-28T05:54:41.324Z,1.33
2023-04-28T05:57:09.284Z,1.02
2023-04-28T05:59:40.572Z,1.38
2023-04-28T06:02:08.395Z,1.95
2023-04-28T06:04:37.285Z,1.02
2023-04-28T06:07:05.257Z,1.50
2023-04-28T06:09:32.785Z,1.35
2023-04-28T06:12:01.511Z,0.95
2023-04-28T06:14:35.369Z,1.10
2023-04-28T06:17:06.661Z,0.85
2023-04-28T06:22:36.911Z,1.08
2023-04-28T06:25:07.121Z,1.27
2023-04-28T06:36:33.981Z,1.15
2023-04-28T06:39:02.105Z,1.33
2023-04-28T06:41:30.478Z,1.00
2023-04-28T06:44:01.584Z,1.15
2023-04-28T06:46:29.177Z,0.80
2023-04-28T06:48:58.525Z,0.82
2023-04-28T06:54:43.508Z,1.75
2023-04-28T06:57:37.843Z,0.75
2023-04-28T07:00:30.509Z,0.80
2023-04-28T07:03:23.307Z,1.02
2023-04-28T07:11:37.247Z,0.70
2023-04-28T07:14:06.239Z,0.98
2023-04-28T07:16:33.824Z,1.00
2023-04-28T07:19:02.525Z,0.80
2023-04-28T07:21:31.463Z,1.08
2023-04-28T07:50:01.001Z,0.80
2023-04-28T07:52:30.498Z,0.70
2023-04-28T07:54:58.334Z,1.25
2023-04-28T08:21:27.346Z,0.65
2023-04-28T08:23:58.320Z,0.70
2023-04-28T08:57:41.330Z,0.95
2023-04-28T09:10:28.275Z,0.70
2023-04-28T09:13:21.026Z,1.00
2023-04-28T09:16:14.192Z,0.90
2023-04-28T09:19:07.566Z,0.77
2023-04-28T09:21:49.072Z,0.80
2023-04-28T09:24:35.217Z,0.80
2023-04-28T09:27:03.431Z,0.60
2023-04-28T09:38:09.455Z,0.77
2023-04-28T09:40:50.304Z,0.77
2023-04-28T09:43:25.172Z,0.85
2023-04-28T09:45:53.281Z,0.70
2023-04-28T09:57:09.357Z,0.90
2023-04-28T09:59:37.429Z,0.70
2023-04-28T10:02:25.970Z,0.82
2023-04-28T10:11:03.724Z,0.77
2023-04-28T10:13:32.412Z,0.70
2023-04-28T10:16:00.240Z,0.77
2023-04-28T10:31:18.270Z,1.00
2023-04-28T10:33:49.861Z,1.35
2023-04-28T10:36:36.682Z,0.90
2023-04-28T10:39:14.575Z,1.00
2023-04-28T10:41:58.204Z,0.80
2023-04-28T10:45:31.813Z,0.73
2023-04-28T11:02:33.070Z,0.90
2023-04-28T11:05:02.416Z,0.70
2023-04-28T11:07:31.456Z,0.90
2023-04-28T11:09:59.054Z,1.45
2023-04-28T11:12:31.356Z,0.80
2023-04-28T11:15:12.712Z,0.80
2023-04-28T11:29:15.810Z,1.10
2023-04-28T11:31:53.803Z,0.73
2023-04-28T11:34:32.347Z,1.00
2023-04-28T11:37:00.714Z,0.80
2023-04-28T11:45:19.308Z,0.73
2023-04-28T11:47:46.929Z,1.27
2023-04-28T11:50:15.801Z,1.17
2023-04-28T11:52:52.400Z,0.75
2023-04-28T11:55:46.062Z,1.10
2023-04-28T11:58:38.514Z,1.08
2023-04-28T12:01:11.926Z,1.10
2023-04-28T12:07:03.341Z,0.55
2023-04-28T12:09:38.898Z,0.77
2023-04-28T12:28:21.492Z,1.40
2023-04-28T12:30:49.568Z,1.02
2023-04-28T12:36:18.443Z,1.10
2023-04-28T12:38:49.230Z,0.95
2023-04-28T12:44:15.682Z,1.10
2023-04-28T13:04:31.449Z,0.90
2023-04-28T13:06:59.418Z,1.00
2023-04-28T13:13:07.477Z,1.02
2023-04-28T13:16:13.338Z,0.80
2023-04-28T13:25:39.330Z,0.82
2023-04-28T13:28:19.381Z,3.47
2023-04-28T13:31:14.531Z,1.52
2023-04-28T13:34:05.618Z,1.23
2023-04-28T13:50:17.888Z,1.10
2023-04-28T13:53:11.201Z,1.10
2023-04-28T13:58:33.877Z,1.40
2023-04-28T14:01:03.986Z,1.20
2023-04-28T14:03:31.975Z,1.30
2023-04-28T14:05:59.981Z,0.80
2023-04-28T14:08:30.549Z,1.08
2023-04-28T14:10:59.577Z,0.70
2023-04-28T14:13:30.128Z,1.00
2023-04-28T14:15:59.597Z,1.98
2023-04-28T14:18:28.351Z,0.95
2023-04-28T14:23:48.393Z,0.80
2023-04-28T14:26:17.704Z,1.17
2023-04-28T14:28:45.970Z,1.00
2023-04-28T14:34:11.997Z,1.00
2023-04-28T14:36:45.851Z,1.00
2023-04-28T14:42:17.314Z,0.95
2023-04-28T14:44:54.528Z,1.08
2023-04-28T14:47:48.724Z,1.02
2023-04-28T14:51:16.493Z,0.77
2023-04-28T14:54:34.642Z,1.33
2023-04-28T14:57:39.613Z,1.25
2023-04-28T15:07:59.138Z,1.30
2023-04-28T15:10:59.426Z,1.08
2023-04-28T15:34:31.246Z,1.33
2023-04-28T15:41:27.853Z,1.30
2023-04-28T15:44:07.042Z,1.50
2023-04-28T15:49:52.850Z,1.10
2023-04-28T15:52:22.425Z,1.63
2023-04-28T15:57:44.792Z,2.53
2023-04-28T16:00:17.038Z,1.33
2023-04-28T16:05:39.389Z,1.20
2023-04-28T16:08:09.765Z,1.42
2023-04-28T16:10:38.716Z,1.17
2023-04-28T16:16:05.176Z,1.15
2023-04-28T16:18:33.074Z,1.60
2023-04-28T16:21:00.732Z,1.60
2023-04-28T16:23:28.371Z,1.50
2023-04-28T16:25:56.057Z,1.17
2023-04-28T16:28:24.008Z,1.60
2023-04-28T16:30:52.172Z,1.40
2023-04-28T16:33:21.141Z,1.40
2023-04-28T16:35:55.831Z,1.75
2023-04-28T16:38:40.987Z,1.52
2023-04-28T16:41:13.949Z,1.48
2023-04-28T16:43:41.616Z,1.30
2023-04-28T16:46:10.167Z,1.63
2023-04-28T16:51:31.790Z,1.67
2023-04-28T16:53:59.475Z,1.92
2023-04-28T16:56:33.613Z,1.70
2023-04-28T16:59:25.713Z,1.30
2023-04-28T17:01:58.692Z,1.33
2023-04-28T17:07:55.655Z,2.58
2023-04-28T17:10:24.324Z,2.63
2023-04-28T17:12:54.289Z,2.08
2023-04-28T17:15:31.705Z,1.58
2023-04-28T17:21:38.093Z,1.70
2023-04-28T17:24:33.340Z,2.17
2023-04-28T17:27:16.336Z,2.47
2023-04-28T17:29:49.878Z,2.00
2023-04-28T17:35:36.621Z,2.45
2023-04-28T17:38:25.610Z,2.17
2023-04-28T17:41:04.259Z,2.15
2023-04-28T17:43:44.095Z,2.10
2023-04-28T17:46:35.401Z,2.10
2023-04-28T17:49:10.244Z,2.03
2023-04-28T17:54:54.102Z,2.05
2023-04-28T17:57:27.776Z,2.22
2023-04-28T18:15:39.569Z,1.77
2023-04-28T18:18:09.637Z,2.08
2023-04-28T18:24:11.251Z,2.17
2023-04-28T18:32:39.932Z,2.05
2023-04-28T18:35:07.667Z,1.70
2023-04-28T18:37:37.493Z,2.00
2023-04-28T18:40:05.355Z,2.35
2023-04-28T18:42:34.073Z,2.47
2023-04-28T18:45:04.441Z,1.83
2023-04-28T18:56:09.045Z,2.03
2023-04-28T18:58:37.282Z,2.70
2023-04-28T19:01:06.182Z,2.35
2023-04-28T19:04:03.107Z,1.80
2023-04-28T19:06:55.693Z,2.10
2023-04-28T19:09:48.305Z,1.75
2023-04-28T19:12:16.319Z,1.90
2023-04-28T19:14:43.794Z,1.77
2023-04-28T19:22:56.651Z,2.20
2023-04-28T19:25:26.475Z,2.55
2023-04-28T19:36:53.011Z,1.70
2023-04-28T19:39:20.571Z,2.05
2023-04-28T19:45:28.734Z,1.80
2023-04-28T19:48:01.986Z,2.05
2023-04-28T19:50:31.324Z,1.90
2023-04-28T19:52:59.001Z,1.88
2023-04-28T19:55:27.265Z,2.00
2023-04-28T20:01:14.032Z,2.15
2023-04-28T20:04:30.995Z,2.13
2023-04-28T20:07:06.687Z,1.67
2023-04-28T20:09:34.712Z,1.80
2023-04-28T20:12:04.562Z,1.90
2023-04-28T20:14:33.152Z,1.98
2023-04-28T20:17:02.020Z,2.28
2023-04-28T20:19:30.323Z,2.35
2023-04-28T20:36:21.341Z,1.52
2023-04-28T20:38:49.115Z,1.35
2023-04-28T20:41:18.094Z,1.60
2023-04-28T20:43:47.048Z,1.80
2023-04-28T20:46:14.795Z,2.28
2023-04-28T20:48:42.361Z,1.50
2023-04-28T20:51:12.240Z,1.42
2023-04-28T20:53:40.513Z,1.90
2023-04-28T20:56:08.498Z,1.48
2023-04-28T21:03:06.389Z,1.50
2023-04-28T21:05:40.003Z,1.77
2023-04-28T21:08:09.434Z,1.80
2023-04-28T21:10:41.965Z,1.38
2023-04-28T21:13:15.307Z,1.73
2023-04-28T21:15:43.140Z,1.83
2023-04-28T21:18:10.805Z,1.30
2023-04-28T21:20:39.721Z,1.55
2023-04-28T21:23:07.632Z,1.52
2023-04-28T21:25:36.716Z,1.48
2023-04-28T21:28:04.487Z,1.45
2023-04-28T21:30:32.091Z,1.70
2023-04-28T21:32:59.802Z,1.63
2023-04-28T21:38:20.666Z,1.80
2023-04-28T21:40:48.665Z,2.35
2023-04-28T21:43:16.557Z,1.52
2023-04-28T21:45:44.201Z,1.60
2023-04-28T21:48:11.901Z,1.83
2023-04-28T21:50:39.536Z,1.48
2023-04-28T21:59:21.751Z,1.75
2023-04-28T22:01:49.833Z,1.70
2023-04-28T22:04:17.736Z,1.88
2023-04-28T22:06:47.308Z,2.00
2023-04-28T22:09:15.382Z,1.27
2023-04-28T22:11:44.385Z,1.70
2023-04-28T22:14:15.204Z,1.48
2023-04-28T22:16:52.124Z,1.52
2023-04-28T22:19:21.283Z,1.50
2023-04-28T22:21:48.801Z,1.50
2023-04-28T22:24:18.213Z,1.70
2023-04-28T22:29:39.541Z,1.40
2023-04-28T22:32:08.427Z,1.73
2023-04-28T22:34:36.038Z,1.60
2023-04-28T22:37:03.646Z,1.40
2023-04-28T22:39:31.208Z,1.70
2023-04-28T22:42:00.641Z,1.60
2023-04-28T22:44:28.308Z,1.65
2023-04-28T22:46:56.795Z,1.83
2023-04-28T22:49:28.391Z,1.83
2023-04-28T22:51:59.358Z,1.30
2023-04-28T22:54:26.899Z,1.52
2023-04-28T22:56:54.562Z,1.40
2023-04-28T22:59:23.612Z,1.38
2023-04-28T23:01:51.166Z,1.65
2023-04-28T23:04:20.426Z,1.83
2023-04-28T23:09:40.720Z,1.55
2023-04-28T23:12:08.280Z,1.50
2023-04-28T23:14:37.266Z,1.98
2023-04-28T23:19:56.526Z,1.30
2023-04-28T23:22:24.077Z,1.77
2023-04-28T23:24:51.920Z,1.75
2023-04-28T23:27:19.716Z,1.63
2023-04-28T23:29:48.851Z,1.63
2023-04-28T23:32:16.517Z,1.83
2023-04-28T23:34:44.354Z,1.80
2023-04-28T23:37:12.185Z,1.80
2023-04-28T23:39:40.130Z,1.92
2023-04-28T23:42:07.705Z,1.80
2023-04-28T23:44:35.637Z,1.80
2023-04-28T23:47:07.178Z,1.90
2023-04-28T23:49:36.389Z,1.70
2023-04-28T23:52:03.998Z,1.88
2023-04-28T23:54:31.779Z,1.48
2023-04-28T23:59:51.026Z,1.65
